sensor_id;sensor_type;location;lat;lon;timestamp;pressure;altitude;pressure_sealevel;temperature;humidity
49645;BME280;36494;50.730;-1.932;2023-01-28T00:01:13;102663.29;;;1.07;100.00
49645;BME280;36494;50.730;-1.932;2023-01-28T00:03:37;102664.35;;;1.07;100.00
49645;BME280;36494;50.730;-1.932;2023-01-28T00:06:02;102666.24;;;1.07;100.00
49645;BME280;36494;50.730;-1.932;2023-01-28T00:08:27;102664.67;;;1.04;100.00
49645;BME280;36494;50.730;-1.932;2023-01-28T00:10:52;102665.28;;;1.04;100.00
49645;BME280;36494;50.730;-1.932;2023-01-28T00:13:18;102662.58;;;1.02;100.00
49645;BME280;36494;50.730;-1.932;2023-01-28T00:15:44;102662.18;;;1.03;100.00
49645;BME280;36494;50.730;-1.932;2023-01-28T00:18:09;102661.63;;;1.03;100.00
49645;BME280;36494;50.730;-1.932;2023-01-28T00:20:35;102658.60;;;1.04;100.00
49645;BME280;36494;50.730;-1.932;2023-01-28T00:23:00;102651.78;;;1.04;100.00
49645;BME280;36494;50.730;-1.932;2023-01-28T00:25:25;102644.52;;;1.05;100.00
49645;BME280;36494;50.730;-1.932;2023-01-28T00:27:50;102642.84;;;1.04;100.00
49645;BME280;36494;50.730;-1.932;2023-01-28T00:30:16;102646.85;;;1.04;100.00
49645;BME280;36494;50.730;-1.932;2023-01-28T00:32:41;102643.44;;;1.04;100.00
49645;BME280;36494;50.730;-1.932;2023-01-28T00:35:07;102643.09;;;1.03;100.00
49645;BME280;36494;50.730;-1.932;2023-01-28T00:37:32;102648.49;;;1.04;100.00
49645;BME280;36494;50.730;-1.932;2023-01-28T00:39:57;102650.97;;;1.04;100.00
49645;BME280;36494;50.730;-1.932;2023-01-28T00:42:22;102649.15;;;1.04;100.00
49645;BME280;36494;50.730;-1.932;2023-01-28T00:44:48;102643.19;;;1.06;100.00
49645;BME280;36494;50.730;-1.932;2023-01-28T00:47:13;102647.78;;;1.08;100.00
49645;BME280;36494;50.730;-1.932;2023-01-28T00:49:39;102652.16;;;1.09;100.00
49645;BME280;36494;50.730;-1.932;2023-01-28T00:52:04;102653.36;;;1.13;100.00
49645;BME280;36494;50.730;-1.932;2023-01-28T00:54:29;102652.28;;;1.15;100.00
49645;BME280;36494;50.730;-1.932;2023-01-28T00:56:55;102651.59;;;1.17;100.00
49645;BME280;36494;50.730;-1.932;2023-01-28T00:59:20;102653.78;;;1.20;100.00
49645;BME280;36494;50.730;-1.932;2023-01-28T01:01:46;102658.07;;;1.21;100.00
49645;BME280;36494;50.730;-1.932;2023-01-28T01:04:11;102660.55;;;1.23;100.00
49645;BME280;36494;50.730;-1.932;2023-01-28T01:06:38;102664.85;;;1.26;100.00
49645;BME280;36494;50.730;-1.932;2023-01-28T01:09:04;102659.92;;;1.28;100.00
49645;BME280;36494;50.730;-1.932;2023-01-28T01:11:27;102661.01;;;1.30;100.00
49645;BME280;36494;50.730;-1.932;2023-01-28T01:13:54;102662.14;;;1.33;100.00
49645;BME280;36494;50.730;-1.932;2023-01-28T01:16:18;102662.86;;;1.32;100.00
49645;BME280;36494;50.730;-1.932;2023-01-28T01:18:43;102663.53;;;1.36;100.00
49645;BME280;36494;50.730;-1.932;2023-01-28T01:21:10;102670.68;;;1.37;100.00
49645;BME280;36494;50.730;-1.932;2023-01-28T01:23:35;102670.77;;;1.39;100.00
49645;BME280;36494;50.730;-1.932;2023-01-28T01:26:00;102672.12;;;1.41;100.00
49645;BME280;36494;50.730;-1.932;2023-01-28T01:28:26;102672.35;;;1.42;100.00
49645;BME280;36494;50.730;-1.932;2023-01-28T01:30:58;102665.97;;;1.44;100.00
49645;BME280;36494;50.730;-1.932;2023-01-28T01:33:17;102663.10;;;1.45;100.00
49645;BME280;36494;50.730;-1.932;2023-01-28T01:35:43;102667.29;;;1.47;100.00
49645;BME280;36494;50.730;-1.932;2023-01-28T01:38:08;102667.28;;;1.49;100.00
49645;BME280;36494;50.730;-1.932;2023-01-28T01:40:34;102663.84;;;1.52;100.00
49645;BME280;36494;50.730;-1.932;2023-01-28T01:43:00;102665.03;;;1.54;100.00
49645;BME280;36494;50.730;-1.932;2023-01-28T01:45:27;102667.81;;;1.56;100.00
49645;BME280;36494;50.730;-1.932;2023-01-28T01:47:55;102664.39;;;1.58;100.00
49645;BME280;36494;50.730;-1.932;2023-01-28T01:50:21;102666.00;;;1.59;100.00
49645;BME280;36494;50.730;-1.932;2023-01-28T01:52:42;102666.59;;;1.61;100.00
49645;BME280;36494;50.730;-1.932;2023-01-28T01:55:12;102670.44;;;1.64;100.00
49645;BME280;36494;50.730;-1.932;2023-01-28T01:57:35;102673.45;;;1.65;100.00
49645;BME280;36494;50.730;-1.932;2023-01-28T01:59:59;102677.03;;;1.67;100.00
49645;BME280;36494;50.730;-1.932;2023-01-28T02:02:23;102675.83;;;1.67;100.00
49645;BME280;36494;50.730;-1.932;2023-01-28T02:04:49;102676.26;;;1.68;100.00
49645;BME280;36494;50.730;-1.932;2023-01-28T02:07:17;102676.07;;;1.70;100.00
49645;BME280;36494;50.730;-1.932;2023-01-28T02:09:40;102672.44;;;1.72;100.00
49645;BME280;36494;50.730;-1.932;2023-01-28T02:12:08;102673.28;;;1.73;100.00
49645;BME280;36494;50.730;-1.932;2023-01-28T02:14:33;102675.58;;;1.74;100.00
49645;BME280;36494;50.730;-1.932;2023-01-28T02:16:56;102672.35;;;1.76;100.00
49645;BME280;36494;50.730;-1.932;2023-01-28T02:19:23;102670.02;;;1.77;100.00
49645;BME280;36494;50.730;-1.932;2023-01-28T02:24:34;102672.15;;;1.79;100.00
49645;BME280;36494;50.730;-1.932;2023-01-28T02:26:49;102675.87;;;1.81;100.00
49645;BME280;36494;50.730;-1.932;2023-01-28T02:29:08;102677.88;;;1.83;100.00
49645;BME280;36494;50.730;-1.932;2023-01-28T02:31:31;102680.60;;;1.86;100.00
49645;BME280;36494;50.730;-1.932;2023-01-28T02:34:00;102679.62;;;1.86;100.00
49645;BME280;36494;50.730;-1.932;2023-01-28T02:36:25;102674.59;;;1.86;100.00
49645;BME280;36494;50.730;-1.932;2023-01-28T02:38:47;102672.42;;;1.89;100.00
49645;BME280;36494;50.730;-1.932;2023-01-28T02:41:15;102678.41;;;1.91;100.00
49645;BME280;36494;50.730;-1.932;2023-01-28T02:43:39;102679.14;;;1.92;100.00
49645;BME280;36494;50.730;-1.932;2023-01-28T02:46:11;102681.24;;;1.91;100.00
49645;BME280;36494;50.730;-1.932;2023-01-28T02:48:27;102682.26;;;1.92;100.00
49645;BME280;36494;50.730;-1.932;2023-01-28T02:50:59;102685.26;;;1.92;100.00
49645;BME280;36494;50.730;-1.932;2023-01-28T02:53:22;102684.75;;;1.93;100.00
49645;BME280;36494;50.730;-1.932;2023-01-28T02:55:48;102678.54;;;1.93;100.00
49645;BME280;36494;50.730;-1.932;2023-01-28T02:58:15;102680.58;;;1.93;100.00
49645;BME280;36494;50.730;-1.932;2023-01-28T03:00:42;102682.32;;;1.97;100.00
49645;BME280;36494;50.730;-1.932;2023-01-28T03:03:05;102682.35;;;1.98;100.00
49645;BME280;36494;50.730;-1.932;2023-01-28T03:05:27;102684.54;;;2.01;100.00
49645;BME280;36494;50.730;-1.932;2023-01-28T03:07:51;102683.17;;;2.01;100.00
49645;BME280;36494;50.730;-1.932;2023-01-28T03:10:17;102681.34;;;2.02;100.00
49645;BME280;36494;50.730;-1.932;2023-01-28T03:12:42;102686.70;;;2.01;100.00
49645;BME280;36494;50.730;-1.932;2023-01-28T03:15:11;102689.31;;;2.01;100.00
49645;BME280;36494;50.730;-1.932;2023-01-28T03:17:37;102695.62;;;2.03;100.00
49645;BME280;36494;50.730;-1.932;2023-01-28T03:19:57;102696.83;;;2.05;100.00
49645;BME280;36494;50.730;-1.932;2023-01-28T03:22:23;102696.77;;;2.06;100.00
49645;BME280;36494;50.730;-1.932;2023-01-28T03:24:51;102698.67;;;2.07;100.00
49645;BME280;36494;50.730;-1.932;2023-01-28T03:27:17;102702.35;;;2.07;100.00
49645;BME280;36494;50.730;-1.932;2023-01-28T03:29:40;102705.18;;;2.08;100.00
49645;BME280;36494;50.730;-1.932;2023-01-28T03:32:04;102706.02;;;2.10;100.00
49645;BME280;36494;50.730;-1.932;2023-01-28T03:34:30;102704.94;;;2.10;100.00
49645;BME280;36494;50.730;-1.932;2023-01-28T03:36:55;102705.61;;;2.12;100.00
49645;BME280;36494;50.730;-1.932;2023-01-28T03:39:26;102707.61;;;2.12;100.00
49645;BME280;36494;50.730;-1.932;2023-01-28T03:41:56;102706.63;;;2.13;100.00
49645;BME280;36494;50.730;-1.932;2023-01-28T03:44:11;102700.53;;;2.13;100.00
49645;BME280;36494;50.730;-1.932;2023-01-28T03:46:38;102701.55;;;2.16;100.00
49645;BME280;36494;50.730;-1.932;2023-01-28T03:49:03;102706.51;;;2.18;100.00
49645;BME280;36494;50.730;-1.932;2023-01-28T03:51:28;102711.96;;;2.19;100.00
49645;BME280;36494;50.730;-1.932;2023-01-28T03:53:54;102712.48;;;2.20;100.00
49645;BME280;36494;50.730;-1.932;2023-01-28T03:56:19;102709.31;;;2.21;100.00
49645;BME280;36494;50.730;-1.932;2023-01-28T03:58:44;102711.71;;;2.23;100.00
49645;BME280;36494;50.730;-1.932;2023-01-28T04:01:10;102712.73;;;2.23;100.00
49645;BME280;36494;50.730;-1.932;2023-01-28T04:03:35;102714.13;;;2.23;100.00
49645;BME280;36494;50.730;-1.932;2023-01-28T04:06:03;102717.99;;;2.25;100.00
49645;BME280;36494;50.730;-1.932;2023-01-28T04:08:26;102716.23;;;2.26;100.00
49645;BME280;36494;50.730;-1.932;2023-01-28T04:10:52;102712.23;;;2.28;100.00
49645;BME280;36494;50.730;-1.932;2023-01-28T04:13:18;102714.84;;;2.30;100.00
49645;BME280;36494;50.730;-1.932;2023-01-28T04:15:43;102717.00;;;2.31;100.00
49645;BME280;36494;50.730;-1.932;2023-01-28T04:18:08;102709.51;;;2.31;100.00
49645;BME280;36494;50.730;-1.932;2023-01-28T04:20:34;102716.85;;;2.34;100.00
49645;BME280;36494;50.730;-1.932;2023-01-28T04:22:59;102717.55;;;2.34;100.00
49645;BME280;36494;50.730;-1.932;2023-01-28T04:25:25;102721.67;;;2.37;100.00
49645;BME280;36494;50.730;-1.932;2023-01-28T04:27:50;102717.80;;;2.37;100.00
49645;BME280;36494;50.730;-1.932;2023-01-28T04:30:15;102718.01;;;2.39;100.00
49645;BME280;36494;50.730;-1.932;2023-01-28T04:32:40;102715.37;;;2.38;100.00
49645;BME280;36494;50.730;-1.932;2023-01-28T04:35:07;102709.73;;;2.38;100.00
49645;BME280;36494;50.730;-1.932;2023-01-28T04:37:31;102711.44;;;2.39;100.00
49645;BME280;36494;50.730;-1.932;2023-01-28T04:39:57;102716.81;;;2.39;100.00
49645;BME280;36494;50.730;-1.932;2023-01-28T04:42:22;102720.60;;;2.37;100.00
49645;BME280;36494;50.730;-1.932;2023-01-28T04:44:48;102714.47;;;2.36;100.00
49645;BME280;36494;50.730;-1.932;2023-01-28T04:47:13;102718.20;;;2.38;100.00
49645;BME280;36494;50.730;-1.932;2023-01-28T04:49:39;102718.46;;;2.40;100.00
49645;BME280;36494;50.730;-1.932;2023-01-28T04:52:04;102711.14;;;2.41;100.00
49645;BME280;36494;50.730;-1.932;2023-01-28T04:54:30;102707.02;;;2.40;100.00
49645;BME280;36494;50.730;-1.932;2023-01-28T04:56:55;102715.92;;;2.41;100.00
49645;BME280;36494;50.730;-1.932;2023-01-28T04:59:21;102715.82;;;2.41;100.00
49645;BME280;36494;50.730;-1.932;2023-01-28T05:01:46;102713.73;;;2.43;100.00
49645;BME280;36494;50.730;-1.932;2023-01-28T05:04:12;102713.22;;;2.43;100.00
49645;BME280;36494;50.730;-1.932;2023-01-28T05:06:37;102714.31;;;2.44;100.00
49645;BME280;36494;50.730;-1.932;2023-01-28T05:09:03;102719.22;;;2.43;100.00
49645;BME280;36494;50.730;-1.932;2023-01-28T05:11:28;102717.60;;;2.43;100.00
49645;BME280;36494;50.730;-1.932;2023-01-28T05:13:54;102715.92;;;2.44;100.00
49645;BME280;36494;50.730;-1.932;2023-01-28T05:16:19;102713.05;;;2.44;100.00
49645;BME280;36494;50.730;-1.932;2023-01-28T05:18:44;102709.18;;;2.43;100.00
49645;BME280;36494;50.730;-1.932;2023-01-28T05:21:10;102706.75;;;2.42;100.00
49645;BME280;36494;50.730;-1.932;2023-01-28T05:23:35;102712.14;;;2.43;100.00
49645;BME280;36494;50.730;-1.932;2023-01-28T05:26:01;102712.45;;;2.41;100.00
49645;BME280;36494;50.730;-1.932;2023-01-28T05:28:26;102716.30;;;2.42;100.00
49645;BME280;36494;50.730;-1.932;2023-01-28T05:30:52;102707.87;;;2.40;100.00
49645;BME280;36494;50.730;-1.932;2023-01-28T05:33:17;102705.58;;;2.41;100.00
49645;BME280;36494;50.730;-1.932;2023-01-28T05:35:43;102711.93;;;2.40;100.00
49645;BME280;36494;50.730;-1.932;2023-01-28T05:38:08;102710.60;;;2.39;100.00
49645;BME280;36494;50.730;-1.932;2023-01-28T05:40:33;102718.71;;;2.37;100.00
49645;BME280;36494;50.730;-1.932;2023-01-28T05:42:59;102726.67;;;2.37;100.00
49645;BME280;36494;50.730;-1.932;2023-01-28T05:45:24;102727.02;;;2.36;100.00
49645;BME280;36494;50.730;-1.932;2023-01-28T05:47:50;102729.80;;;2.37;100.00
49645;BME280;36494;50.730;-1.932;2023-01-28T05:50:16;102730.06;;;2.37;100.00
49645;BME280;36494;50.730;-1.932;2023-01-28T05:52:41;102726.85;;;2.34;100.00
49645;BME280;36494;50.730;-1.932;2023-01-28T05:55:08;102731.81;;;2.37;100.00
49645;BME280;36494;50.730;-1.932;2023-01-28T05:57:32;102733.62;;;2.37;100.00
49645;BME280;36494;50.730;-1.932;2023-01-28T05:59:57;102738.85;;;2.40;100.00
49645;BME280;36494;50.730;-1.932;2023-01-28T06:02:23;102739.44;;;2.38;100.00
49645;BME280;36494;50.730;-1.932;2023-01-28T06:04:48;102740.72;;;2.38;100.00
49645;BME280;36494;50.730;-1.932;2023-01-28T06:07:13;102742.04;;;2.38;100.00
49645;BME280;36494;50.730;-1.932;2023-01-28T06:09:38;102738.24;;;2.38;100.00
49645;BME280;36494;50.730;-1.932;2023-01-28T06:12:04;102733.41;;;2.36;100.00
49645;BME280;36494;50.730;-1.932;2023-01-28T06:14:29;102733.61;;;2.33;100.00
49645;BME280;36494;50.730;-1.932;2023-01-28T06:16:55;102737.58;;;2.35;100.00
49645;BME280;36494;50.730;-1.932;2023-01-28T06:19:21;102733.33;;;2.35;100.00
49645;BME280;36494;50.730;-1.932;2023-01-28T06:21:46;102735.25;;;2.34;100.00
49645;BME280;36494;50.730;-1.932;2023-01-28T06:24:12;102735.51;;;2.36;100.00
49645;BME280;36494;50.730;-1.932;2023-01-28T06:26:37;102738.58;;;2.35;100.00
49645;BME280;36494;50.730;-1.932;2023-01-28T06:29:02;102743.39;;;2.37;100.00
49645;BME280;36494;50.730;-1.932;2023-01-28T06:31:28;102745.59;;;2.33;100.00
49645;BME280;36494;50.730;-1.932;2023-01-28T06:33:53;102742.59;;;2.35;100.00
49645;BME280;36494;50.730;-1.932;2023-01-28T06:36:19;102736.74;;;2.36;100.00
49645;BME280;36494;50.730;-1.932;2023-01-28T06:38:44;102741.78;;;2.36;100.00
49645;BME280;36494;50.730;-1.932;2023-01-28T06:41:09;102749.92;;;2.37;100.00
49645;BME280;36494;50.730;-1.932;2023-01-28T06:43:35;102751.04;;;2.36;100.00
49645;BME280;36494;50.730;-1.932;2023-01-28T06:46:00;102750.25;;;2.36;100.00
49645;BME280;36494;50.730;-1.932;2023-01-28T06:48:27;102757.29;;;2.36;100.00
49645;BME280;36494;50.730;-1.932;2023-01-28T06:50:51;102756.97;;;2.36;100.00
49645;BME280;36494;50.730;-1.932;2023-01-28T06:53:17;102751.85;;;2.36;100.00
49645;BME280;36494;50.730;-1.932;2023-01-28T06:55:42;102754.34;;;2.36;100.00
49645;BME280;36494;50.730;-1.932;2023-01-28T06:58:08;102758.90;;;2.37;100.00
49645;BME280;36494;50.730;-1.932;2023-01-28T07:00:33;102762.41;;;2.37;100.00
49645;BME280;36494;50.730;-1.932;2023-01-28T07:02:58;102764.65;;;2.37;100.00
49645;BME280;36494;50.730;-1.932;2023-01-28T07:05:24;102758.13;;;2.39;100.00
49645;BME280;36494;50.730;-1.932;2023-01-28T07:07:49;102760.92;;;2.40;100.00
49645;BME280;36494;50.730;-1.932;2023-01-28T07:10:15;102758.85;;;2.40;100.00
49645;BME280;36494;50.730;-1.932;2023-01-28T07:12:40;102754.91;;;2.39;100.00
49645;BME280;36494;50.730;-1.932;2023-01-28T07:15:06;102754.17;;;2.43;100.00
49645;BME280;36494;50.730;-1.932;2023-01-28T07:17:30;102750.97;;;2.40;100.00
49645;BME280;36494;50.730;-1.932;2023-01-28T07:19:56;102749.49;;;2.42;100.00
49645;BME280;36494;50.730;-1.932;2023-01-28T07:22:22;102753.24;;;2.43;100.00
49645;BME280;36494;50.730;-1.932;2023-01-28T07:24:48;102750.08;;;2.42;100.00
49645;BME280;36494;50.730;-1.932;2023-01-28T07:27:13;102750.56;;;2.45;100.00
49645;BME280;36494;50.730;-1.932;2023-01-28T07:29:38;102748.10;;;2.44;100.00
49645;BME280;36494;50.730;-1.932;2023-01-28T07:32:04;102741.85;;;2.45;100.00
49645;BME280;36494;50.730;-1.932;2023-01-28T07:34:29;102747.11;;;2.45;100.00
49645;BME280;36494;50.730;-1.932;2023-01-28T07:36:55;102753.99;;;2.44;100.00
49645;BME280;36494;50.730;-1.932;2023-01-28T07:39:21;102758.67;;;2.43;100.00
49645;BME280;36494;50.730;-1.932;2023-01-28T07:41:46;102759.56;;;2.42;100.00
49645;BME280;36494;50.730;-1.932;2023-01-28T07:44:11;102758.82;;;2.43;100.00
49645;BME280;36494;50.730;-1.932;2023-01-28T07:46:37;102766.47;;;2.44;100.00
49645;BME280;36494;50.730;-1.932;2023-01-28T07:49:02;102766.28;;;2.43;100.00
49645;BME280;36494;50.730;-1.932;2023-01-28T07:51:27;102764.54;;;2.43;100.00
49645;BME280;36494;50.730;-1.932;2023-01-28T07:53:53;102771.02;;;2.45;100.00
49645;BME280;36494;50.730;-1.932;2023-01-28T07:56:18;102775.68;;;2.44;100.00
49645;BME280;36494;50.730;-1.932;2023-01-28T07:58:43;102778.51;;;2.45;100.00
49645;BME280;36494;50.730;-1.932;2023-01-28T08:01:09;102779.32;;;2.45;100.00
49645;BME280;36494;50.730;-1.932;2023-01-28T08:03:34;102780.00;;;2.46;100.00
49645;BME280;36494;50.730;-1.932;2023-01-28T08:06:00;102783.78;;;2.46;100.00
49645;BME280;36494;50.730;-1.932;2023-01-28T08:08:25;102786.94;;;2.46;100.00
49645;BME280;36494;50.730;-1.932;2023-01-28T08:10:51;102784.27;;;2.46;100.00
49645;BME280;36494;50.730;-1.932;2023-01-28T08:13:17;102789.40;;;2.46;100.00
49645;BME280;36494;50.730;-1.932;2023-01-28T08:15:42;102792.54;;;2.48;100.00
49645;BME280;36494;50.730;-1.932;2023-01-28T08:18:09;102796.78;;;2.51;100.00
49645;BME280;36494;50.730;-1.932;2023-01-28T08:20:33;102794.92;;;2.50;100.00
49645;BME280;36494;50.730;-1.932;2023-01-28T08:23:04;102794.89;;;2.52;100.00
49645;BME280;36494;50.730;-1.932;2023-01-28T08:25:24;102789.87;;;2.53;100.00
49645;BME280;36494;50.730;-1.932;2023-01-28T08:27:50;102792.51;;;2.53;100.00
49645;BME280;36494;50.730;-1.932;2023-01-28T08:30:15;102796.18;;;2.57;100.00
49645;BME280;36494;50.730;-1.932;2023-01-28T08:32:40;102785.78;;;2.58;100.00
49645;BME280;36494;50.730;-1.932;2023-01-28T08:35:06;102789.21;;;2.61;100.00
49645;BME280;36494;50.730;-1.932;2023-01-28T08:37:31;102793.55;;;2.62;100.00
49645;BME280;36494;50.730;-1.932;2023-01-28T08:39:56;102796.45;;;2.64;100.00
49645;BME280;36494;50.730;-1.932;2023-01-28T08:42:22;102799.94;;;2.65;100.00
49645;BME280;36494;50.730;-1.932;2023-01-28T08:44:47;102798.66;;;2.66;100.00
49645;BME280;36494;50.730;-1.932;2023-01-28T08:47:12;102793.77;;;2.68;100.00
49645;BME280;36494;50.730;-1.932;2023-01-28T08:49:38;102795.58;;;2.70;100.00
49645;BME280;36494;50.730;-1.932;2023-01-28T08:52:04;102806.96;;;2.70;100.00
49645;BME280;36494;50.730;-1.932;2023-01-28T08:54:29;102808.75;;;2.72;100.00
49645;BME280;36494;50.730;-1.932;2023-01-28T08:56:54;102808.27;;;2.74;100.00
49645;BME280;36494;50.730;-1.932;2023-01-28T08:59:20;102809.21;;;2.76;100.00
49645;BME280;36494;50.730;-1.932;2023-01-28T09:01:45;102807.36;;;2.78;100.00
49645;BME280;36494;50.730;-1.932;2023-01-28T09:04:11;102810.29;;;2.80;100.00
49645;BME280;36494;50.730;-1.932;2023-01-28T09:06:37;102813.19;;;2.83;100.00
49645;BME280;36494;50.730;-1.932;2023-01-28T09:09:03;102810.86;;;2.82;100.00
49645;BME280;36494;50.730;-1.932;2023-01-28T09:11:28;102811.82;;;2.86;100.00
49645;BME280;36494;50.730;-1.932;2023-01-28T09:13:56;102815.60;;;2.89;100.00
49645;BME280;36494;50.730;-1.932;2023-01-28T09:16:19;102823.67;;;2.85;100.00
49645;BME280;36494;50.730;-1.932;2023-01-28T09:18:45;102830.01;;;2.91;100.00
49645;BME280;36494;50.730;-1.932;2023-01-28T09:21:10;102831.21;;;2.92;100.00
49645;BME280;36494;50.730;-1.932;2023-01-28T09:23:36;102833.29;;;2.93;100.00
49645;BME280;36494;50.730;-1.932;2023-01-28T09:26:02;102837.32;;;2.97;100.00
49645;BME280;36494;50.730;-1.932;2023-01-28T09:28:26;102836.00;;;2.96;100.00
49645;BME280;36494;50.730;-1.932;2023-01-28T09:30:52;102843.44;;;3.01;100.00
49645;BME280;36494;50.730;-1.932;2023-01-28T09:33:17;102843.23;;;3.03;100.00
49645;BME280;36494;50.730;-1.932;2023-01-28T09:35:43;102841.98;;;2.99;100.00
49645;BME280;36494;50.730;-1.932;2023-01-28T09:38:08;102846.05;;;3.03;100.00
49645;BME280;36494;50.730;-1.932;2023-01-28T09:40:36;102849.30;;;3.05;100.00
49645;BME280;36494;50.730;-1.932;2023-01-28T09:43:11;102841.34;;;3.05;100.00
49645;BME280;36494;50.730;-1.932;2023-01-28T09:45:31;102837.04;;;3.12;100.00
49645;BME280;36494;50.730;-1.932;2023-01-28T09:47:51;102839.01;;;3.15;100.00
49645;BME280;36494;50.730;-1.932;2023-01-28T09:50:22;102843.06;;;3.13;100.00
49645;BME280;36494;50.730;-1.932;2023-01-28T09:52:41;102850.28;;;3.17;100.00
49645;BME280;36494;50.730;-1.932;2023-01-28T09:55:13;102851.20;;;3.27;100.00
49645;BME280;36494;50.730;-1.932;2023-01-28T09:57:38;102852.55;;;3.32;100.00
49645;BME280;36494;50.730;-1.932;2023-01-28T09:59:57;102848.20;;;3.35;100.00
49645;BME280;36494;50.730;-1.932;2023-01-28T10:02:35;102849.54;;;3.42;100.00
49645;BME280;36494;50.730;-1.932;2023-01-28T10:04:57;102852.26;;;3.44;100.00
49645;BME280;36494;50.730;-1.932;2023-01-28T10:07:25;102844.85;;;3.43;100.00
49645;BME280;36494;50.730;-1.932;2023-01-28T10:09:44;102838.65;;;3.53;100.00
49645;BME280;36494;50.730;-1.932;2023-01-28T10:12:14;102826.37;;;3.54;100.00
49645;BME280;36494;50.730;-1.932;2023-01-28T10:14:40;102817.54;;;3.54;100.00
49645;BME280;36494;50.730;-1.932;2023-01-28T10:16:56;102822.08;;;3.60;100.00
49645;BME280;36494;50.730;-1.932;2023-01-28T10:19:22;102820.95;;;3.66;100.00
49645;BME280;36494;50.730;-1.932;2023-01-28T10:21:47;102808.72;;;3.72;100.00
49645;BME280;36494;50.730;-1.932;2023-01-28T10:24:15;102800.87;;;3.69;100.00
49645;BME280;36494;50.730;-1.932;2023-01-28T10:26:38;102797.41;;;3.73;100.00
49645;BME280;36494;50.730;-1.932;2023-01-28T10:29:05;102799.77;;;3.79;100.00
49645;BME280;36494;50.730;-1.932;2023-01-28T10:31:31;102810.07;;;3.88;100.00
49645;BME280;36494;50.730;-1.932;2023-01-28T10:33:52;102815.03;;;3.95;100.00
49645;BME280;36494;50.730;-1.932;2023-01-28T10:36:17;102816.48;;;3.96;100.00
49645;BME280;36494;50.730;-1.932;2023-01-28T10:38:42;102812.16;;;4.00;100.00
49645;BME280;36494;50.730;-1.932;2023-01-28T10:41:10;102811.19;;;4.07;100.00
49645;BME280;36494;50.730;-1.932;2023-01-28T10:43:36;102804.61;;;4.17;100.00
49645;BME280;36494;50.730;-1.932;2023-01-28T10:46:03;102800.24;;;4.23;100.00
49645;BME280;36494;50.730;-1.932;2023-01-28T10:48:28;102797.28;;;4.30;100.00
49645;BME280;36494;50.730;-1.932;2023-01-28T10:50:51;102793.69;;;4.34;100.00
49645;BME280;36494;50.730;-1.932;2023-01-28T10:53:15;102776.94;;;4.39;100.00
49645;BME280;36494;50.730;-1.932;2023-01-28T10:55:48;102777.85;;;4.47;100.00
49645;BME280;36494;50.730;-1.932;2023-01-28T10:58:12;102773.57;;;4.50;100.00
49645;BME280;36494;50.730;-1.932;2023-01-28T11:00:34;102773.78;;;4.51;100.00
49645;BME280;36494;50.730;-1.932;2023-01-28T11:02:58;102764.68;;;4.59;100.00
49645;BME280;36494;50.730;-1.932;2023-01-28T11:05:26;102759.53;;;4.63;100.00
49645;BME280;36494;50.730;-1.932;2023-01-28T11:07:48;102760.35;;;4.66;100.00
49645;BME280;36494;50.730;-1.932;2023-01-28T11:10:24;102750.33;;;4.72;100.00
49645;BME280;36494;50.730;-1.932;2023-01-28T11:12:39;102748.46;;;4.80;100.00
49645;BME280;36494;50.730;-1.932;2023-01-28T11:15:05;102740.63;;;4.85;100.00
49645;BME280;36494;50.730;-1.932;2023-01-28T11:17:32;102723.73;;;4.88;100.00
49645;BME280;36494;50.730;-1.932;2023-01-28T11:19:57;102715.71;;;4.91;100.00
49645;BME280;36494;50.730;-1.932;2023-01-28T11:22:25;102717.42;;;4.97;100.00
49645;BME280;36494;50.730;-1.932;2023-01-28T11:24:46;102720.72;;;5.02;100.00
49645;BME280;36494;50.730;-1.932;2023-01-28T11:27:14;102721.28;;;5.09;100.00
49645;BME280;36494;50.730;-1.932;2023-01-28T11:29:38;102722.42;;;5.21;100.00
49645;BME280;36494;50.730;-1.932;2023-01-28T11:32:01;102715.74;;;5.24;100.00
49645;BME280;36494;50.730;-1.932;2023-01-28T11:34:29;102715.58;;;5.32;100.00
49645;BME280;36494;50.730;-1.932;2023-01-28T11:36:53;102718.25;;;5.36;100.00
49645;BME280;36494;50.730;-1.932;2023-01-28T11:39:20;102713.94;;;5.45;100.00
49645;BME280;36494;50.730;-1.932;2023-01-28T11:41:42;102719.21;;;5.47;100.00
49645;BME280;36494;50.730;-1.932;2023-01-28T11:44:14;102721.14;;;5.54;100.00
49645;BME280;36494;50.730;-1.932;2023-01-28T11:46:44;102720.45;;;5.62;100.00
49645;BME280;36494;50.730;-1.932;2023-01-28T11:49:05;102724.58;;;5.56;100.00
49645;BME280;36494;50.730;-1.932;2023-01-28T11:51:31;102727.80;;;5.58;100.00
49645;BME280;36494;50.730;-1.932;2023-01-28T11:53:59;102732.75;;;5.63;100.00
49645;BME280;36494;50.730;-1.932;2023-01-28T11:56:24;102737.43;;;5.71;100.00
49645;BME280;36494;50.730;-1.932;2023-01-28T11:58:46;102735.08;;;5.73;100.00
49645;BME280;36494;50.730;-1.932;2023-01-28T12:01:11;102732.93;;;5.76;100.00
49645;BME280;36494;50.730;-1.932;2023-01-28T12:03:38;102739.66;;;5.79;100.00
49645;BME280;36494;50.730;-1.932;2023-01-28T12:05:59;102744.09;;;5.86;100.00
49645;BME280;36494;50.730;-1.932;2023-01-28T12:08:23;102748.75;;;5.76;100.00
49645;BME280;36494;50.730;-1.932;2023-01-28T12:11:02;102752.62;;;5.80;100.00
49645;BME280;36494;50.730;-1.932;2023-01-28T12:13:23;102754.77;;;5.81;100.00
49645;BME280;36494;50.730;-1.932;2023-01-28T12:15:50;102753.19;;;5.79;100.00
49645;BME280;36494;50.730;-1.932;2023-01-28T12:18:15;102753.86;;;5.73;100.00
49645;BME280;36494;50.730;-1.932;2023-01-28T12:20:32;102751.74;;;5.71;100.00
49645;BME280;36494;50.730;-1.932;2023-01-28T12:23:05;102751.43;;;5.74;100.00
49645;BME280;36494;50.730;-1.932;2023-01-28T12:25:27;102752.96;;;5.84;100.00
49645;BME280;36494;50.730;-1.932;2023-01-28T12:27:50;102752.70;;;5.83;100.00
49645;BME280;36494;50.730;-1.932;2023-01-28T12:30:21;102750.07;;;5.69;100.00
49645;BME280;36494;50.730;-1.932;2023-01-28T12:32:45;102747.54;;;5.82;100.00